createdAt,value
2022-07-26T00:00:13.260Z,8.75
2022-07-26T00:02:47.809Z,8.85
2022-07-26T00:05:18.650Z,11.60
2022-07-26T00:07:45.935Z,10.35
2022-07-26T00:10:13.176Z,9.77
2022-07-26T00:12:40.065Z,9.73
2022-07-26T00:15:10.718Z,9.48
2022-07-26T00:17:37.807Z,9.55
2022-07-26T00:20:05.627Z,9.80
2022-07-26T00:22:35.010Z,10.23
2022-07-26T00:25:07.407Z,9.52
2022-07-26T00:27:37.232Z,7.95
2022-07-26T00:30:09.419Z,9.38
2022-07-26T00:32:37.548Z,9.07
2022-07-26T00:35:04.985Z,8.80
2022-07-26T00:37:31.989Z,8.68
2022-07-26T00:39:58.661Z,9.02
2022-07-26T00:42:25.300Z,8.25
2022-07-26T00:44:52.063Z,8.45
2022-07-26T00:47:18.880Z,8.13
2022-07-26T00:49:45.568Z,8.05
2022-07-26T00:52:12.534Z,8.23
2022-07-26T00:54:43.860Z,7.18
2022-07-26T00:57:10.612Z,7.53
2022-07-26T00:59:37.864Z,7.63
2022-07-26T01:02:06.648Z,7.68
2022-07-26T01:04:34.310Z,6.50
2022-07-26T01:07:02.342Z,7.18
2022-07-26T01:09:41.622Z,6.50
2022-07-26T01:12:09.091Z,6.25
2022-07-26T01:14:35.831Z,5.53
2022-07-26T01:17:02.978Z,5.85
2022-07-26T01:19:29.854Z,5.20
2022-07-26T01:21:56.778Z,6.07
2022-07-26T01:24:23.504Z,5.70
2022-07-26T01:26:50.203Z,6.80
2022-07-26T01:29:17.131Z,5.95
2022-07-26T01:31:43.852Z,6.30
2022-07-26T01:35:09.817Z,6.03
2022-07-26T01:37:36.472Z,5.43
2022-07-26T01:40:03.943Z,6.55
2022-07-26T01:42:31.627Z,6.40
2022-07-26T01:44:58.333Z,6.00
2022-07-26T01:47:24.928Z,6.78
2022-07-26T01:49:51.577Z,6.43
2022-07-26T01:52:18.797Z,5.80
2022-07-26T01:54:45.521Z,6.70
2022-07-26T01:57:12.280Z,6.30
2022-07-26T01:59:38.878Z,6.18
2022-07-26T02:02:05.628Z,6.13
2022-07-26T02:04:50.744Z,6.32
2022-07-26T02:07:17.418Z,6.18
2022-07-26T02:09:44.086Z,5.38
2022-07-26T02:12:10.772Z,5.90
2022-07-26T02:14:37.537Z,7.18
2022-07-26T02:17:04.591Z,5.90
2022-07-26T02:19:31.655Z,6.90
2022-07-26T02:21:58.685Z,6.18
2022-07-26T02:24:28.702Z,6.63
2022-07-26T02:26:59.811Z,6.90
2022-07-26T02:29:27.488Z,6.43
2022-07-26T02:31:54.757Z,5.97
2022-07-26T02:34:21.680Z,6.80
2022-07-26T02:36:48.322Z,7.10
2022-07-26T02:39:15.275Z,6.97
2022-07-26T02:41:41.972Z,6.15
2022-07-26T02:44:09.672Z,6.30
2022-07-26T02:46:37.491Z,6.20
2022-07-26T02:49:04.659Z,6.78
2022-07-26T02:51:31.535Z,5.78
2022-07-26T02:53:58.237Z,6.22
2022-07-26T02:56:24.887Z,6.35
2022-07-26T02:58:51.528Z,6.53
2022-07-26T03:01:18.286Z,6.25
2022-07-26T03:03:50.131Z,5.40
2022-07-26T03:06:17.751Z,6.20
2022-07-26T03:08:44.366Z,6.57
2022-07-26T03:11:12.321Z,5.72
2022-07-26T03:13:39.308Z,6.00
2022-07-26T03:16:07.582Z,5.68
2022-07-26T03:18:34.320Z,5.88
2022-07-26T03:21:00.952Z,5.75
2022-07-26T03:23:27.593Z,6.78
2022-07-26T03:25:54.147Z,5.50
2022-07-26T03:28:20.973Z,5.70
2022-07-26T03:30:47.702Z,5.68
2022-07-26T03:33:14.373Z,5.72
2022-07-26T03:35:41.045Z,5.95
2022-07-26T03:38:08.478Z,5.82
2022-07-26T03:40:35.145Z,5.72
2022-07-26T03:43:01.804Z,5.13
2022-07-26T03:45:29.818Z,5.88
2022-07-26T03:47:56.516Z,5.25
2022-07-26T03:50:23.356Z,6.05
2022-07-26T03:52:50.026Z,6.18
2022-07-26T03:55:34.908Z,5.57
2022-07-26T03:58:01.771Z,6.63
2022-07-26T04:00:28.392Z,6.22
2022-07-26T04:02:55.219Z,6.30
2022-07-26T04:05:23.807Z,6.40
2022-07-26T04:07:53.726Z,6.75
2022-07-26T04:10:22.140Z,5.75
2022-07-26T04:12:49.800Z,6.18
2022-07-26T04:15:17.235Z,5.40
2022-07-26T04:17:44.044Z,5.80
2022-07-26T04:20:11.778Z,5.53
2022-07-26T04:22:41.379Z,5.90
2022-07-26T04:25:09.185Z,6.72
2022-07-26T04:27:37.227Z,5.63
2022-07-26T04:30:06.095Z,5.72
2022-07-26T04:32:34.187Z,5.68
2022-07-26T04:35:00.854Z,5.50
2022-07-26T04:37:27.444Z,5.80
2022-07-26T04:39:55.142Z,5.95
2022-07-26T04:42:21.861Z,5.65
2022-07-26T04:44:48.593Z,5.97
2022-07-26T04:47:15.192Z,6.38
2022-07-26T04:49:41.804Z,5.80
2022-07-26T04:52:08.408Z,5.43
2022-07-26T04:54:34.967Z,5.20
2022-07-26T04:57:01.532Z,5.88
2022-07-26T04:59:28.248Z,4.93
2022-07-26T05:01:59.361Z,5.38
2022-07-26T05:04:26.382Z,4.93
2022-07-26T05:06:53.252Z,4.80
2022-07-26T05:09:19.898Z,5.47
2022-07-26T05:11:46.492Z,5.75
2022-07-26T05:14:13.101Z,5.28
2022-07-26T05:16:44.346Z,5.13
2022-07-26T05:19:11.755Z,4.88
2022-07-26T05:21:38.780Z,4.97
2022-07-26T05:24:07.711Z,4.93
2022-07-26T05:26:34.731Z,4.50
2022-07-26T05:29:01.365Z,4.78
2022-07-26T05:31:28.082Z,4.00
2022-07-26T05:33:55.324Z,3.95
2022-07-26T05:36:22.053Z,5.10
2022-07-26T05:38:48.683Z,4.38
2022-07-26T05:41:15.395Z,5.25
2022-07-26T05:43:42.317Z,5.55
2022-07-26T05:46:10.290Z,5.72
2022-07-26T05:48:37.579Z,5.72
2022-07-26T05:51:04.399Z,6.05
2022-07-26T05:53:31.073Z,5.53
2022-07-26T05:55:57.697Z,6.78
2022-07-26T05:58:24.337Z,6.38
2022-07-26T06:00:51.084Z,7.15
2022-07-26T06:03:23.903Z,6.28
2022-07-26T06:05:52.899Z,7.82
2022-07-26T06:08:20.389Z,6.80
2022-07-26T06:10:48.677Z,7.10
2022-07-26T06:13:15.832Z,7.97
2022-07-26T06:15:43.087Z,8.38
2022-07-26T06:18:10.167Z,7.45
2022-07-26T06:20:41.001Z,7.60
2022-07-26T06:23:07.904Z,7.32
2022-07-26T06:25:35.128Z,8.80
2022-07-26T06:28:03.913Z,7.25
2022-07-26T06:30:30.971Z,8.48
2022-07-26T06:32:57.877Z,6.95
2022-07-26T06:35:24.730Z,6.88
2022-07-26T06:37:51.340Z,6.05
2022-07-26T06:40:17.959Z,6.50
2022-07-26T06:42:44.544Z,6.03
2022-07-26T06:45:11.389Z,7.13
2022-07-26T06:47:38.039Z,6.68
2022-07-26T06:50:05.488Z,6.43
2022-07-26T06:52:32.927Z,7.88
2022-07-26T06:55:00.348Z,7.10
2022-07-26T06:57:27.247Z,6.80
2022-07-26T06:59:53.932Z,7.35
2022-07-26T07:02:21.009Z,7.40
2022-07-26T07:04:47.630Z,7.22
2022-07-26T07:07:14.486Z,7.60
2022-07-26T07:09:41.394Z,7.95
2022-07-26T07:12:10.711Z,7.68
2022-07-26T07:14:38.597Z,7.22
2022-07-26T07:17:10.404Z,6.88
2022-07-26T07:19:39.872Z,6.82
2022-07-26T07:22:06.697Z,7.82
2022-07-26T07:24:33.309Z,7.88
2022-07-26T07:27:01.275Z,7.38
2022-07-26T07:29:28.015Z,6.82
2022-07-26T07:31:55.907Z,6.70
2022-07-26T07:34:23.921Z,7.55
2022-07-26T07:36:50.875Z,6.03
2022-07-26T07:39:18.177Z,6.60
2022-07-26T07:41:48.266Z,7.25
2022-07-26T07:44:15.155Z,8.10
2022-07-26T07:46:41.784Z,6.63
2022-07-26T07:49:09.038Z,7.43
2022-07-26T07:51:36.361Z,7.57
2022-07-26T07:54:05.795Z,7.35
2022-07-26T07:56:32.826Z,7.13
2022-07-26T07:58:59.705Z,7.10
2022-07-26T08:01:40.059Z,7.18
2022-07-26T08:04:07.421Z,7.30
2022-07-26T08:06:34.097Z,6.63
2022-07-26T08:09:00.727Z,6.40
2022-07-26T08:11:30.354Z,6.60
2022-07-26T08:13:57.047Z,7.10
2022-07-26T08:16:24.689Z,6.78
2022-07-26T08:18:57.926Z,6.65
2022-07-26T08:21:27.527Z,7.35
2022-07-26T08:23:56.121Z,7.50
2022-07-26T08:26:22.720Z,6.88
2022-07-26T08:29:00.076Z,6.18
2022-07-26T08:31:28.502Z,6.55
2022-07-26T08:33:55.667Z,8.10
2022-07-26T08:36:22.664Z,7.05
2022-07-26T08:38:49.612Z,5.95
2022-07-26T08:41:18.138Z,6.00
2022-07-26T08:43:52.008Z,6.57
2022-07-26T08:46:25.844Z,5.90
2022-07-26T08:48:53.694Z,5.57
2022-07-26T08:51:23.763Z,5.30
2022-07-26T08:53:54.409Z,4.80
2022-07-26T08:56:21.104Z,4.88
2022-07-26T08:58:47.697Z,5.47
2022-07-26T09:01:15.041Z,5.55
2022-07-26T09:03:43.470Z,5.40
2022-07-26T09:06:21.979Z,4.60
2022-07-26T09:08:51.902Z,4.75
2022-07-26T09:11:28.685Z,4.85
2022-07-26T09:14:01.268Z,6.15
2022-07-26T09:16:29.111Z,5.25
2022-07-26T09:19:06.639Z,5.75
2022-07-26T09:21:36.435Z,5.60
2022-07-26T09:24:03.511Z,5.32
2022-07-26T09:26:30.634Z,5.10
2022-07-26T09:29:12.707Z,5.43
2022-07-26T09:31:40.242Z,5.22
2022-07-26T09:34:07.844Z,4.80
2022-07-26T09:36:54.436Z,4.95
2022-07-26T09:39:27.765Z,4.22
2022-07-26T09:42:26.831Z,3.70
2022-07-26T09:44:56.334Z,4.78
2022-07-26T09:47:34.737Z,4.72
2022-07-26T09:50:17.210Z,4.18
2022-07-26T09:53:13.370Z,5.05
2022-07-26T09:56:06.037Z,4.55
2022-07-26T09:58:33.755Z,4.65
2022-07-26T10:01:02.450Z,3.53
2022-07-26T10:03:31.379Z,3.75
2022-07-26T10:05:59.325Z,4.72
2022-07-26T10:08:27.001Z,4.93
2022-07-26T10:11:02.009Z,4.60
2022-07-26T10:13:30.384Z,6.50
2022-07-26T10:15:57.193Z,5.30
2022-07-26T10:18:45.837Z,4.40
2022-07-26T10:21:27.064Z,4.85
2022-07-26T10:23:56.927Z,4.82
2022-07-26T10:26:37.692Z,4.25
2022-07-26T10:29:19.339Z,4.45
2022-07-26T10:31:48.148Z,4.18
2022-07-26T10:34:34.409Z,4.47
2022-07-26T10:37:04.502Z,3.95
2022-07-26T10:39:31.169Z,4.20
2022-07-26T10:42:08.969Z,4.10
2022-07-26T10:44:41.300Z,3.92
2022-07-26T10:47:18.809Z,4.50
2022-07-26T10:49:57.306Z,3.85
2022-07-26T10:52:32.508Z,3.75
2022-07-26T10:55:08.373Z,4.07
2022-07-26T10:57:42.692Z,4.10
2022-07-26T11:00:22.178Z,3.45
2022-07-26T11:02:53.127Z,3.72
2022-07-26T11:05:21.674Z,3.45
2022-07-26T11:08:09.153Z,4.10
2022-07-26T11:10:45.608Z,3.55
2022-07-26T11:13:23.782Z,3.97
2022-07-26T11:16:02.998Z,3.45
2022-07-26T11:18:35.410Z,4.55
2022-07-26T11:21:10.700Z,4.05
2022-07-26T11:23:39.025Z,3.80
2022-07-26T11:26:06.819Z,4.05
2022-07-26T11:29:06.146Z,4.72
2022-07-26T11:31:59.960Z,4.05
2022-07-26T11:34:33.302Z,3.97
2022-07-26T11:37:02.800Z,4.32
2022-07-26T11:39:35.139Z,4.63
2022-07-26T11:42:09.557Z,4.00
2022-07-26T11:44:36.673Z,4.43
2022-07-26T11:47:20.677Z,4.40
2022-07-26T11:50:00.958Z,4.00
2022-07-26T11:52:37.851Z,3.97
2022-07-26T11:55:04.986Z,4.10
2022-07-26T11:57:32.361Z,4.03
2022-07-26T12:00:00.817Z,3.40
2022-07-26T12:02:30.192Z,4.93
2022-07-26T12:05:19.921Z,4.03
2022-07-26T12:08:03.830Z,3.65
2022-07-26T12:10:30.770Z,4.53
2022-07-26T12:13:12.288Z,5.00
2022-07-26T12:15:49.680Z,4.83
2022-07-26T12:18:27.235Z,4.72
2022-07-26T12:21:09.158Z,5.90
2022-07-26T12:26:40.267Z,5.72
2022-07-26T12:29:25.722Z,5.97
2022-07-26T12:32:35.290Z,5.78
2022-07-26T12:35:11.756Z,5.80
2022-07-26T12:37:51.385Z,5.57
2022-07-26T12:40:26.554Z,5.18
2022-07-26T12:43:02.662Z,6.32
2022-07-26T12:45:34.868Z,6.00
2022-07-26T12:48:03.700Z,5.63
2022-07-26T12:50:33.733Z,5.70
2022-07-26T12:53:05.208Z,5.38
2022-07-26T12:55:32.018Z,5.10
2022-07-26T12:57:59.445Z,5.82
2022-07-26T13:00:28.554Z,5.57
2022-07-26T13:02:57.242Z,4.93
2022-07-26T13:05:24.295Z,4.25
2022-07-26T13:07:55.463Z,5.38
2022-07-26T13:10:37.629Z,4.80
2022-07-26T13:15:36.301Z,4.75
2022-07-26T13:18:08.231Z,4.53
2022-07-26T13:20:37.332Z,4.70
2022-07-26T13:23:04.137Z,4.88
2022-07-26T13:25:39.798Z,4.63
2022-07-26T13:28:08.253Z,4.60
2022-07-26T13:30:37.876Z,3.60
2022-07-26T13:33:05.151Z,3.63
2022-07-26T13:35:31.842Z,3.63
2022-07-26T13:37:58.522Z,3.53
2022-07-26T13:40:30.635Z,3.75
2022-07-26T13:42:58.148Z,2.65
2022-07-26T13:45:24.727Z,2.22
2022-07-26T13:47:56.126Z,2.15
2022-07-26T13:50:22.843Z,2.83
2022-07-26T13:52:49.796Z,2.42
2022-07-26T13:55:16.503Z,1.80
2022-07-26T13:57:53.290Z,1.80
2022-07-26T14:00:24.331Z,2.70
2022-07-26T14:02:51.098Z,3.00
2022-07-26T14:05:18.584Z,3.05
2022-07-26T14:07:45.263Z,3.42
2022-07-26T14:10:11.916Z,3.47
2022-07-26T14:12:38.706Z,3.67
2022-07-26T14:15:13.760Z,3.80
2022-07-26T14:17:41.989Z,3.88
2022-07-26T14:20:10.238Z,4.28
2022-07-26T14:22:36.946Z,5.18
2022-07-26T14:25:03.666Z,3.92
2022-07-26T14:27:30.319Z,3.47
2022-07-26T14:29:57.005Z,3.33
2022-07-26T14:32:23.760Z,3.45
2022-07-26T14:34:51.031Z,3.40
2022-07-26T14:37:44.360Z,3.03
2022-07-26T14:40:05.932Z,3.40
2022-07-26T14:42:33.373Z,3.45
2022-07-26T14:45:00.072Z,3.15
2022-07-26T14:47:26.745Z,2.92
2022-07-26T14:49:53.381Z,3.35
2022-07-26T14:52:20.108Z,3.08
2022-07-26T14:54:46.774Z,2.78
2022-07-26T14:57:13.594Z,3.28
2022-07-26T14:59:40.170Z,3.20
2022-07-26T15:02:06.867Z,2.83
2022-07-26T15:04:33.570Z,2.85
2022-07-26T15:07:00.282Z,3.13
2022-07-26T15:09:26.954Z,3.25
2022-07-26T15:11:53.662Z,2.85
2022-07-26T15:14:20.321Z,2.97
2022-07-26T15:16:46.979Z,2.75
2022-07-26T15:19:13.733Z,2.45
2022-07-26T15:21:40.370Z,2.47
2022-07-26T15:24:09.595Z,2.80
2022-07-26T15:26:36.454Z,2.58
2022-07-26T15:29:03.147Z,2.40
2022-07-26T15:31:37.409Z,2.50
2022-07-26T15:34:07.546Z,2.92
2022-07-26T15:36:34.540Z,2.80
2022-07-26T15:39:15.565Z,2.78
2022-07-26T15:44:11.497Z,2.85
2022-07-26T15:46:39.194Z,2.45
2022-07-26T15:49:07.441Z,2.78
2022-07-26T15:51:34.448Z,2.55
2022-07-26T15:54:02.510Z,2.97
2022-07-26T15:56:29.133Z,2.08
2022-07-26T15:58:55.850Z,2.15
2022-07-26T16:01:22.772Z,2.33
2022-07-26T16:03:49.585Z,2.58
2022-07-26T16:06:16.220Z,2.83
2022-07-26T16:09:05.961Z,2.15
2022-07-26T16:11:30.425Z,2.97
2022-07-26T16:14:01.813Z,2.20
2022-07-26T16:16:30.456Z,2.67
2022-07-26T16:18:57.522Z,1.98
2022-07-26T16:21:24.462Z,2.13
2022-07-26T16:23:51.226Z,2.72
2022-07-26T16:26:18.372Z,2.05
2022-07-26T16:28:45.167Z,2.80
2022-07-26T16:31:11.916Z,2.40
2022-07-26T16:33:39.134Z,2.20
2022-07-26T16:36:13.413Z,2.22
2022-07-26T16:38:40.091Z,2.42
2022-07-26T16:41:06.907Z,1.80
2022-07-26T16:43:34.579Z,1.88
2022-07-26T16:46:01.319Z,2.10
2022-07-26T16:48:28.111Z,1.90
2022-07-26T16:50:54.912Z,1.95
2022-07-26T16:53:21.553Z,2.05
2022-07-26T16:55:51.328Z,1.80
2022-07-26T16:58:18.779Z,2.05
2022-07-26T17:00:45.995Z,2.55
2022-07-26T17:03:15.606Z,2.63
2022-07-26T17:05:43.682Z,1.90
2022-07-26T17:08:10.514Z,2.13
2022-07-26T17:10:37.197Z,2.40
2022-07-26T17:13:04.297Z,2.75
2022-07-26T17:15:30.910Z,2.70
2022-07-26T17:17:57.594Z,1.85
2022-07-26T17:20:24.454Z,2.38
2022-07-26T17:22:51.111Z,1.80
2022-07-26T17:25:17.725Z,2.22
2022-07-26T17:27:44.400Z,2.72
2022-07-26T17:30:11.739Z,2.05
2022-07-26T17:32:38.467Z,2.10
2022-07-26T17:35:06.600Z,1.90
2022-07-26T17:37:35.010Z,2.15
2022-07-26T17:40:03.540Z,2.00
2022-07-26T17:42:30.321Z,1.90
2022-07-26T17:44:56.985Z,1.88
2022-07-26T17:47:29.073Z,2.15
2022-07-26T17:50:08.998Z,1.90
2022-07-26T17:52:45.441Z,2.22
2022-07-26T17:55:12.082Z,2.30
2022-07-26T17:57:38.829Z,2.33
2022-07-26T18:00:07.492Z,2.08
2022-07-26T18:02:34.137Z,2.70
2022-07-26T18:05:01.421Z,2.55
2022-07-26T18:07:28.155Z,2.15
2022-07-26T18:09:54.769Z,2.60
2022-07-26T18:12:21.434Z,2.17
2022-07-26T18:14:48.079Z,2.17
2022-07-26T18:17:14.793Z,2.10
2022-07-26T18:19:41.758Z,2.33
2022-07-26T18:22:08.361Z,2.22
2022-07-26T18:24:35.046Z,1.98
2022-07-26T18:27:01.778Z,1.30
2022-07-26T18:29:28.485Z,2.47
2022-07-26T18:31:58.488Z,2.42
2022-07-26T18:34:25.104Z,1.65
2022-07-26T18:36:51.726Z,2.33
2022-07-26T18:39:18.455Z,1.95
2022-07-26T18:41:45.222Z,2.25
2022-07-26T18:44:12.877Z,1.75
2022-07-26T18:46:39.899Z,1.70
2022-07-26T18:49:07.134Z,2.78
2022-07-26T18:51:33.922Z,1.67
2022-07-26T18:54:00.786Z,2.08
2022-07-26T18:56:27.461Z,2.20
2022-07-26T18:58:54.265Z,2.10
2022-07-26T19:01:20.896Z,1.63
2022-07-26T19:03:47.595Z,2.08
2022-07-26T19:06:14.530Z,1.90
2022-07-26T19:08:41.238Z,1.55
2022-07-26T19:11:07.900Z,1.50
2022-07-26T19:13:34.506Z,1.70
2022-07-26T19:16:01.181Z,2.15
2022-07-26T19:18:27.961Z,1.80
2022-07-26T19:20:54.624Z,1.98
2022-07-26T19:23:21.289Z,1.98
2022-07-26T19:25:47.933Z,1.60
2022-07-26T19:28:15.749Z,2.03
2022-07-26T19:30:43.222Z,2.40
2022-07-26T19:33:10.199Z,1.92
2022-07-26T19:35:36.852Z,2.03
2022-07-26T19:38:03.590Z,2.30
2022-07-26T19:40:30.767Z,2.10
2022-07-26T19:42:57.401Z,2.30
2022-07-26T19:45:24.094Z,2.58
2022-07-26T19:47:50.684Z,1.58
2022-07-26T19:50:17.555Z,1.90
2022-07-26T19:52:44.204Z,2.28
2022-07-26T19:55:10.824Z,1.80
2022-07-26T19:57:37.557Z,1.88
2022-07-26T20:00:08.820Z,2.15
2022-07-26T20:02:35.677Z,1.80
2022-07-26T20:05:02.407Z,1.88
2022-07-26T20:07:29.117Z,1.90
2022-07-26T20:09:55.749Z,1.90
2022-07-26T20:12:22.418Z,1.98
2022-07-26T20:14:49.057Z,2.15
2022-07-26T20:17:16.281Z,1.92
2022-07-26T20:19:42.970Z,2.25
2022-07-26T20:22:09.815Z,2.40
2022-07-26T20:24:38.307Z,2.90
2022-07-26T20:27:08.123Z,2.00
2022-07-26T20:29:35.673Z,1.88
2022-07-26T20:32:02.836Z,2.45
2022-07-26T20:34:29.868Z,2.08
2022-07-26T20:36:56.542Z,2.53
2022-07-26T20:39:23.246Z,2.33
2022-07-26T20:41:49.911Z,2.30
2022-07-26T20:44:16.680Z,1.80
2022-07-26T20:46:45.521Z,2.30
2022-07-26T20:49:12.525Z,2.47
2022-07-26T20:51:39.424Z,1.88
2022-07-26T20:54:06.632Z,2.03
2022-07-26T20:56:33.836Z,2.97
2022-07-26T20:59:02.234Z,2.35
2022-07-26T21:01:30.156Z,1.80
2022-07-26T21:03:57.235Z,2.25
2022-07-26T21:06:24.185Z,1.98
2022-07-26T21:08:52.280Z,1.52
2022-07-26T21:11:19.334Z,1.85
2022-07-26T21:13:46.579Z,1.85
2022-07-26T21:16:15.514Z,2.40
2022-07-26T21:18:42.283Z,2.38
2022-07-26T21:21:08.958Z,2.00
2022-07-26T21:23:35.590Z,1.98
2022-07-26T21:26:02.325Z,2.00
2022-07-26T21:28:29.288Z,2.03
2022-07-26T21:30:56.126Z,2.17
2022-07-26T21:33:22.783Z,2.42
2022-07-26T21:35:49.444Z,2.00
2022-07-26T21:38:16.069Z,2.47
2022-07-26T21:40:42.671Z,1.98
2022-07-26T21:43:09.261Z,2.22
2022-07-26T21:45:35.991Z,2.00
2022-07-26T21:48:03.483Z,2.17
2022-07-26T21:50:30.357Z,2.10
2022-07-26T21:52:57.026Z,2.63
2022-07-26T21:55:23.688Z,2.60
2022-07-26T21:57:50.274Z,2.20
2022-07-26T22:00:17.686Z,1.92
2022-07-26T22:02:44.388Z,2.10
2022-07-26T22:05:29.605Z,2.45
2022-07-26T22:07:56.226Z,1.95
2022-07-26T22:10:23.380Z,2.40
2022-07-26T22:12:50.329Z,2.33
2022-07-26T22:15:17.264Z,2.22
2022-07-26T22:17:43.942Z,1.98
2022-07-26T22:20:11.666Z,2.15
2022-07-26T22:22:38.557Z,2.15
2022-07-26T22:25:06.128Z,1.98
2022-07-26T22:27:32.817Z,2.05
2022-07-26T22:29:59.429Z,2.28
2022-07-26T22:32:27.137Z,1.92
2022-07-26T22:34:53.731Z,2.75
2022-07-26T22:37:20.387Z,2.20
2022-07-26T22:39:47.084Z,2.50
2022-07-26T22:42:15.632Z,2.25
2022-07-26T22:44:42.631Z,2.40
2022-07-26T22:47:09.210Z,2.25
2022-07-26T22:49:35.930Z,2.20
2022-07-26T22:52:02.625Z,2.65
2022-07-26T22:54:29.412Z,2.22
2022-07-26T22:56:56.018Z,2.08
2022-07-26T22:59:25.232Z,2.10
2022-07-26T23:01:51.905Z,2.10
2022-07-26T23:04:18.648Z,2.25
2022-07-26T23:06:45.852Z,2.58
2022-07-26T23:09:14.044Z,2.65
2022-07-26T23:11:41.128Z,2.20
2022-07-26T23:14:07.758Z,2.03
2022-07-26T23:16:34.394Z,2.92
2022-07-26T23:19:01.078Z,2.53
2022-07-26T23:21:27.845Z,2.95
2022-07-26T23:23:54.994Z,2.33
2022-07-26T23:26:21.839Z,2.30
2022-07-26T23:28:48.614Z,2.80
2022-07-26T23:31:15.201Z,2.75
2022-07-26T23:33:53.045Z,2.47
2022-07-26T23:36:28.624Z,2.40
2022-07-26T23:38:57.128Z,2.42
2022-07-26T23:41:24.698Z,2.47
2022-07-26T23:43:52.035Z,2.78
2022-07-26T23:46:18.741Z,2.67
2022-07-26T23:48:45.624Z,2.40
2022-07-26T23:51:12.683Z,2.70
2022-07-26T23:53:39.340Z,3.22
2022-07-26T23:56:06.092Z,2.67
2022-07-26T23:58:32.713Z,2.28
